Latest Weather Observations for Nullarbor

IDS60801

Issued at 1:35 pm CST Wednesday 16 April 2014 (issued every 30 minutes, with the page automatically refreshed every 10 minutes)

About weather observations | Map of weather stations | Latest weather observations for SA | Other Formats
Station Details ID: 018106 Name: NULLARBOR Lat: -31.45 Lon: 130.90 Height: 64.0 m
Data from the previous 72 hours. | See also: Recent months at Nullarbor
Date/Time
CST
Temp
°C
App
Temp
°C
Dew
Point
Rel
Hum
%
Delta-T
°C
Wind Press
QNH
hPa
Press
MSL
hPa
Rain
since 9 am
mm
Dir
 
Spd
km/h
Gust
km/h
Spd
kts
Gust
kts
16/01:30pm 26.6 22.6 6.6 28 10.5 NW 17 24 9 13 1020.1 - 0.2
16/01:00pm 26.3 23.1 6.9 29 10.2 NW 13 22 7 12 1020.5 - 0.2
16/12:30pm 25.3 21.8 7.4 32 9.5 NW 15 22 8 12 1020.9 - 0.2
16/12:00pm 24.9 21.6 8.0 34 9.0 NW 15 24 8 13 1021.4 1021.2 0.2
16/11:30am 24.0 20.4 8.4 37 8.3 NW 17 26 9 14 1021.7 - 0.2
16/11:00am 23.0 20.4 9.4 42 7.4 WNW 13 22 7 12 1022.2 - 0.2
16/10:30am 22.1 19.4 10.3 47 6.5 NNW 15 22 8 12 1022.2 - 0.2
16/10:00am 20.3 17.8 11.2 56 5.0 N 15 17 8 9 1022.3 - 0.0
16/09:30am 18.1 15.5 11.9 67 3.4 N 17 20 9 11 1022.3 - 0.0
16/09:00am 15.9 13.8 12.3 79 2.0 N 15 19 8 10 1022.5 1022.3 0.0
16/08:30am 13.5 11.8 12.4 93 0.6 N 13 17 7 9 1022.3 - 0.0
16/08:00am 11.5 10.2 11.3 99 0.1 N 9 11 5 6 1022.4 - 0.0
16/07:30am 9.8 6.9 9.7 99 0.1 N 15 17 8 9 1021.1 - 0.0
16/07:00am 9.6 6.7 9.5 99 0.0 NNE 15 17 8 9 1021.0 - 0.0
16/06:30am 10.0 7.2 9.9 99 0.1 NNE 15 17 8 9 1020.9 - 0.0
16/06:00am 10.5 7.4 10.3 99 0.1 NNE 17 19 9 10 1020.9 1020.7 0.0
16/05:30am 10.0 7.2 9.9 99 0.1 N 15 17 8 9 1021.0 - 0.0
16/05:00am 10.4 8.0 10.2 99 0.1 NNE 13 15 7 8 1021.0 - 0.0
16/04:30am 10.9 8.3 10.7 99 0.1 NNE 15 19 8 10 1020.8 - 0.0
16/04:00am 10.3 7.1 10.1 99 0.1 NNE 17 19 9 10 1020.5 - 0.0
16/03:30am 8.7 5.5 8.6 99 0.0 NNE 15 17 8 9 1020.8 - 0.0
16/03:00am 8.7 5.8 8.3 97 0.2 NNE 13 15 7 8 1021.1 1020.9 0.0
16/02:30am 9.6 7.7 9.0 96 0.3 NE 9 11 5 6 1021.5 - 0.0
16/02:00am 9.9 7.2 9.1 95 0.4 ENE 13 15 7 8 1021.6 - 0.0
16/01:30am 10.5 8.0 9.7 95 0.4 ENE 13 17 7 9 1021.8 - 0.0
16/01:00am 10.8 8.0 9.9 94 0.5 E 15 17 8 9 1021.8 - 0.0
16/12:30am 11.2 8.8 10.1 93 0.6 E 13 15 7 8 1022.2 - 0.0
16/12:00am 12.0 9.8 10.7 92 0.7 E 13 15 7 8 1022.0 1021.8 0.0
 
Date/Time
CST
Temp
°C
App
Temp
°C
Dew
Point
Rel
Hum
%
Delta-T
°C
Wind Press
QNH
hPa
Press
MSL
hPa
Rain
since 9 am
mm
Dir
 
Spd
km/h
Gust
km/h
Spd
kts
Gust
kts
15/11:30pm 12.7 10.8 11.8 94 0.5 E 13 15 7 8 1022.2 - 0.0
15/11:00pm 12.7 10.8 11.9 95 0.4 E 13 15 7 8 1022.3 - 0.0
15/10:30pm 12.6 10.5 11.0 90 0.8 E 13 13 7 7 1022.4 - 0.0
15/10:00pm 13.7 11.8 11.9 89 1.0 E 13 15 7 8 1022.5 - 0.0
15/09:30pm 14.2 12.0 12.2 88 1.1 ESE 15 17 8 9 1022.4 - 0.0
15/09:00pm 14.6 12.6 12.6 88 1.1 ESE 15 17 8 9 1022.3 1022.1 0.0
15/08:30pm 14.8 13.1 12.3 85 1.4 ESE 13 15 7 8 1022.2 - 0.0
15/08:00pm 15.4 13.3 12.5 83 1.6 ESE 15 17 8 9 1022.1 - 0.0
15/07:30pm 15.9 13.8 12.3 79 2.0 SE 15 17 8 9 1022.2 - 0.0
15/07:00pm 16.7 14.3 12.7 77 2.2 SE 17 20 9 11 1021.9 - 0.0
15/06:30pm 17.6 14.6 12.7 73 2.7 ESE 20 26 11 14 1021.5 - 0.0
15/06:00pm 18.7 15.4 12.7 68 3.4 SE 22 28 12 15 1021.5 1021.3 0.0
15/05:30pm 19.6 15.3 12.1 62 4.2 SE 26 32 14 17 1021.2 - 0.0
15/05:00pm 20.2 15.9 12.2 60 4.5 SE 26 33 14 18 1021.1 - 0.0
15/04:30pm 20.9 16.7 12.3 58 4.8 SE 26 35 14 19 1021.3 - 0.0
15/04:00pm 21.3 17.0 12.2 56 5.1 SE 26 32 14 17 1021.2 - 0.0
15/03:30pm 22.0 17.8 12.3 54 5.5 SE 26 33 14 18 1021.4 - 0.0
15/03:00pm 22.3 18.4 12.0 52 5.8 SE 24 32 13 17 1021.3 1021.1 0.0
15/02:30pm 22.4 20.1 11.8 51 6.0 ESE 15 24 8 13 1021.3 - 0.0
15/02:00pm 22.5 19.3 11.9 51 6.0 SE 20 33 11 18 1021.6 - 0.0
15/01:30pm 23.2 20.3 9.6 42 7.4 N 15 24 8 13 1022.0 - 0.0
15/01:00pm 22.8 20.5 10.3 45 6.9 ENE 13 20 7 11 1022.5 - 0.0
15/12:30pm 22.9 20.8 11.3 48 6.5 NNE 13 19 7 10 1023.2 - 0.0
15/12:00pm 21.7 19.5 10.8 50 6.0 NE 13 20 7 11 1024.0 1023.7 0.0
15/11:30am 21.3 18.8 11.1 52 5.6 NE 15 19 8 10 1024.1 - 0.0
15/11:00am 20.2 17.7 11.1 56 5.0 E 15 22 8 12 1024.2 - 0.0
15/10:30am 19.5 16.6 11.0 58 4.6 E 17 24 9 13 1024.5 - 0.0
15/10:00am 19.1 15.9 11.4 61 4.2 E 19 26 10 14 1024.6 - 0.0
15/09:30am 18.2 14.9 11.5 65 3.7 E 20 28 11 15 1024.5 - 0.0
15/09:00am 16.7 14.1 13.2 80 2.0 E 19 22 10 12 1024.5 1024.2 0.0
15/08:30am 13.2 14.1 13.0 99 0.1 CALM 0 0 0 0 1024.6 - 0.0
15/08:00am 10.7 9.6 10.5 99 0.1 NE 7 9 4 5 1024.4 - 0.0
15/07:30am 9.4 7.6 9.3 99 0.0 NE 9 13 5 7 1024.1 - 0.0
15/07:00am 9.0 6.6 8.5 97 0.2 NE 11 13 6 7 1023.7 - 0.0
15/06:30am 9.5 8.6 9.2 98 0.1 NE 4 9 2 5 1023.2 - 0.0
15/06:00am 9.4 8.5 9.1 98 0.1 NE 4 6 2 3 1023.3 1023.1 0.0
15/05:30am 10.0 8.8 9.7 98 0.2 NE 6 9 3 5 1023.3 - 0.0
15/05:00am 9.1 7.4 8.3 95 0.4 NE 7 9 4 5 1023.3 - 0.0
15/04:30am 10.0 8.5 9.2 95 0.4 NE 7 13 4 7 1023.5 - 0.0
15/04:00am 10.5 8.1 9.9 96 0.3 NE 13 15 7 8 1024.5 - 0.0
15/03:30am 10.2 7.6 9.3 94 0.4 NE 13 15 7 8 1024.2 - 0.0
15/03:00am 10.9 10.2 10.0 94 0.5 NE 4 7 2 4 1023.9 1023.6 0.0
15/02:30am 10.3 8.7 8.9 91 0.7 NE 7 9 4 5 1024.0 - 0.0
15/02:00am 11.8 12.0 10.5 92 0.7 CALM 0 6 0 3 1024.4 - 0.0
15/01:30am 11.8 11.2 10.5 92 0.7 ENE 4 7 2 4 1024.5 - 0.0
15/01:00am 11.5 9.9 10.1 91 0.7 ENE 9 11 5 6 1024.5 - 0.0
15/12:30am 11.7 9.6 9.9 89 0.9 ENE 11 13 6 7 1024.3 - 0.0
15/12:00am 13.1 11.7 10.8 86 1.2 E 9 9 5 5 1024.7 1024.4 0.0
 
Date/Time
CST
Temp
°C
App
Temp
°C
Dew
Point
Rel
Hum
%
Delta-T
°C
Wind Press
QNH
hPa
Press
MSL
hPa
Rain
since 9 am
mm
Dir
 
Spd
km/h
Gust
km/h
Spd
kts
Gust
kts
14/11:30pm 14.0 12.6 11.0 82 1.6 E 9 11 5 6 1024.9 - 0.0
14/11:00pm 16.1 14.1 12.8 81 1.8 ESE 15 20 8 11 1024.9 - 0.0
14/10:30pm 16.0 13.0 11.8 76 2.3 SE 19 24 10 13 1024.9 - 0.0
14/10:00pm 17.0 14.6 12.5 75 2.5 SE 17 22 9 12 1024.9 - 0.0
14/09:30pm 17.2 14.4 12.7 75 2.5 SSE 19 24 10 13 1025.0 - 0.0
14/09:00pm 16.9 14.5 12.6 76 2.4 SSE 17 22 9 12 1024.8 1024.5 0.0
14/08:30pm 15.9 13.6 11.9 77 2.2 SE 15 22 8 12 1024.7 - 0.0
14/08:00pm 16.9 14.1 12.6 76 2.4 SE 19 24 10 13 1024.5 - 0.0
14/07:30pm 17.1 14.7 12.6 75 2.5 SSE 17 20 9 11 1024.4 - 0.0
14/07:00pm 16.8 14.2 12.1 74 2.6 SE 17 20 9 11 1024.3 - 0.0
14/06:30pm 17.2 14.0 11.9 71 2.9 SE 20 28 11 15 1024.0 - 0.0
14/06:00pm 17.9 14.3 11.9 68 3.3 SSE 22 32 12 17 1023.6 1023.4 0.0
14/05:30pm 18.2 13.8 11.7 66 3.6 SE 26 33 14 18 1023.4 - 0.0
14/05:00pm 18.9 14.1 11.5 62 4.1 SE 28 35 15 19 1023.2 - 0.0
14/04:30pm 19.5 15.4 11.5 60 4.4 SE 24 32 13 17 1022.9 - 0.0
14/04:00pm 19.3 14.6 10.6 57 4.7 SSE 26 33 14 18 1023.0 - 0.0
14/03:30pm 19.9 14.7 10.3 54 5.2 SSE 28 37 15 20 1023.1 - 0.0
14/03:00pm 20.5 14.6 10.3 52 5.5 SSE 32 44 17 24 1023.2 1023.0 0.0
14/02:30pm 19.9 13.6 9.8 52 5.4 SE 33 46 18 25 1023.6 - 0.0
14/02:00pm 20.2 14.4 9.5 50 5.7 SE 30 44 16 24 1023.6 - 0.0
14/01:30pm 20.4 13.9 9.0 48 6.0 SE 33 44 18 24 1023.5 - 0.0
14/01:00pm 19.8 15.1 9.4 51 5.5 SSE 24 37 13 20 1024.2 - 0.0
14/12:30pm 19.4 15.2 9.6 53 5.2 ESE 22 39 12 21 1024.1 - 0.0
14/12:00pm 18.8 13.1 9.8 56 4.8 SE 30 39 16 21 1024.3 1024.0 0.0
14/11:30am 19.4 14.8 11.2 59 4.5 SSE 26 33 14 18 1024.7 - 0.0
14/11:00am 18.6 13.8 10.2 58 4.5 SE 26 35 14 19 1025.1 - 0.0
14/10:30am 18.8 14.1 10.6 59 4.4 SSE 26 35 14 19 1025.2 - 0.0
14/10:00am 18.6 15.9 11.7 64 3.8 SE 17 22 9 12 1025.3 - 0.0
14/09:30am 18.0 15.3 11.8 67 3.4 E 17 22 9 12 1025.1 - 0.0
14/09:00am 16.8 14.2 11.9 73 2.7 E 17 22 9 12 1024.9 1024.6 0.0
14/08:30am 16.2 13.5 11.8 75 2.4 E 17 22 9 12 1024.7 - 0.0
14/08:00am 16.4 14.4 12.6 78 2.1 E 15 20 8 11 1024.4 - 0.0
14/07:30am 15.5 14.2 11.3 76 2.3 E 9 13 5 7 1023.9 - 0.0
14/07:00am 15.5 13.5 10.1 70 2.8 SE 11 13 6 7 1023.7 - 0.0
14/06:30am 15.9 12.7 9.8 67 3.2 SE 17 20 9 11 1023.7 - 0.0
14/06:00am 16.6 13.7 11.1 70 3.0 SE 17 22 9 12 1023.7 1023.5 0.0
14/05:30am 16.4 13.5 9.6 64 3.6 SE 15 19 8 10 1023.5 - 0.0
14/05:00am 16.6 13.4 11.1 70 3.0 SE 19 24 10 13 1023.4 - 0.0
14/04:30am 15.6 12.9 10.4 71 2.7 SE 15 20 8 11 1023.4 - 0.0
14/04:00am 15.6 13.5 11.0 74 2.5 SE 13 15 7 8 1023.3 - 0.0
14/03:30am 15.7 13.6 11.1 74 2.5 SE 13 19 7 10 1023.4 - 0.0
14/03:00am 16.0 13.9 11.2 73 2.6 ESE 13 17 7 9 1023.5 1023.3 0.0
14/02:30am 16.3 13.5 11.2 72 2.7 ESE 17 22 9 12 1023.5 - 0.0
14/02:00am 16.8 13.1 11.5 71 2.9 SE 22 32 12 17 1023.5 - 0.0
14/01:30am 16.5 13.5 11.9 74 2.5 SE 19 26 10 14 1023.4 - 0.0
14/01:00am 16.0 12.9 12.2 78 2.1 SE 20 26 11 14 1023.5 - 0.0
14/12:30am 14.9 13.2 12.4 85 1.4 SE 13 17 7 9 1023.6 - 0.0
14/12:00am 15.6 13.3 12.9 84 1.5 SE 17 20 9 11 1024.0 1023.7 0.0
 
Date/Time
CST
Temp
°C
App
Temp
°C
Dew
Point
Rel
Hum
%
Delta-T
°C
Wind Press
QNH
hPa
Press
MSL
hPa
Rain
since 9 am
mm
Dir
 
Spd
km/h
Gust
km/h
Spd
kts
Gust
kts
13/11:30pm 14.5 12.7 13.4 93 0.6 SE 15 17 8 9 1024.1 - 0.0
13/11:00pm 15.3 14.0 13.8 91 0.8 SE 13 15 7 8 1024.4 - 0.0
13/10:30pm 16.1 14.9 14.1 88 1.1 ESE 13 17 7 9 1024.4 - 0.0
13/10:00pm 15.5 14.0 13.0 85 1.4 SE 13 15 7 8 1024.4 - 0.0
13/09:30pm 16.4 14.5 13.1 81 1.8 SE 15 20 8 11 1024.4 - 0.0
13/09:00pm 16.7 14.2 13.6 82 1.7 SE 19 24 10 13 1024.2 1023.9 0.0
13/08:30pm 16.6 14.9 13.7 83 1.6 SSE 15 19 8 10 1024.2 - 0.0
13/08:00pm 16.0 14.1 12.9 82 1.7 SSE 15 19 8 10 1024.2 - 0.0
13/07:30pm 16.2 13.8 12.7 80 1.9 SE 17 22 9 12 1023.9 - 0.0
13/07:00pm 16.8 13.9 12.9 78 2.2 SE 20 28 11 15 1023.5 - 0.0
13/06:30pm 17.2 13.9 12.7 75 2.5 SE 22 32 12 17 1023.3 - 0.0
13/06:00pm 18.0 13.1 12.5 70 3.1 SE 30 37 16 20 1022.9 1022.7 0.0
13/05:30pm 18.7 13.8 12.5 67 3.5 SE 30 35 16 19 1022.6 - 0.0
13/05:00pm 19.3 13.5 11.6 61 4.3 SSE 33 43 18 23 1022.4 - 0.0
13/04:30pm 20.2 15.2 11.1 56 5.0 SE 28 35 15 19 1022.2 - 0.0
13/04:00pm 20.1 15.0 11.8 59 4.6 SSE 30 37 16 20 1022.4 - 0.0
13/03:30pm 20.1 14.5 11.6 58 4.7 SSE 32 41 17 22 1022.3 - 0.0
13/03:00pm 20.9 15.3 11.5 55 5.2 SSE 32 39 17 21 1022.3 1022.1 0.0
13/02:30pm 21.2 15.9 9.8 48 6.2 SE 28 35 15 19 1022.1 - 0.0
13/02:00pm 20.9 15.4 9.2 47 6.2 SE 28 37 15 20 1022.2 - 0.0

Other Formats:

Comma delimited format used in spreadsheet applications
http://www.bom.gov.au/fwo/IDS60801/IDS60801.94651.axf

JavaScript Object Notation format (JSON) in row-major order
http://www.bom.gov.au/fwo/IDS60801/IDS60801.94651.json